createdAt,value
2018-06-15T00:02:19.839Z,16.80
2018-06-15T00:04:47.242Z,16.80
2018-06-15T00:07:14.678Z,16.90
2018-06-15T00:09:42.093Z,16.90
2018-06-15T00:12:09.521Z,16.90
2018-06-15T00:14:36.913Z,16.90
2018-06-15T00:17:04.404Z,17.00
2018-06-15T00:19:31.903Z,16.90
2018-06-15T00:21:59.312Z,16.90
2018-06-15T00:24:26.832Z,16.90
2018-06-15T00:26:54.249Z,16.90
2018-06-15T00:29:21.792Z,16.90
2018-06-15T00:31:49.224Z,17.00
2018-06-15T00:34:16.841Z,16.90
2018-06-15T00:36:44.293Z,17.00
2018-06-15T00:39:12.744Z,16.90
2018-06-15T00:41:41.059Z,16.90
2018-06-15T00:44:08.500Z,16.90
2018-06-15T00:46:35.937Z,16.90
2018-06-15T00:49:03.454Z,16.90
2018-06-15T00:51:30.908Z,17.00
2018-06-15T00:53:58.617Z,16.90
2018-06-15T00:58:53.463Z,16.90
2018-06-15T01:01:20.888Z,17.00
2018-06-15T01:03:48.377Z,17.00
2018-06-15T01:06:15.820Z,16.90
2018-06-15T01:08:43.232Z,16.90
2018-06-15T01:11:10.664Z,16.90
2018-06-15T01:13:38.076Z,16.90
2018-06-15T01:16:05.658Z,16.90
2018-06-15T01:18:33.081Z,16.90
2018-06-15T01:21:00.482Z,16.90
2018-06-15T01:23:27.943Z,16.80
2018-06-15T01:25:55.351Z,16.80
2018-06-15T01:28:22.758Z,16.80
2018-06-15T01:30:50.218Z,16.90
2018-06-15T01:33:17.624Z,16.90
2018-06-15T01:35:45.037Z,16.90
2018-06-15T01:38:12.469Z,16.90
2018-06-15T01:40:39.882Z,16.90
2018-06-15T01:43:07.334Z,16.90
2018-06-15T01:45:34.765Z,16.90
2018-06-15T01:48:02.221Z,16.90
2018-06-15T01:50:29.637Z,17.00
2018-06-15T01:52:57.038Z,16.90
2018-06-15T01:55:24.475Z,17.00
2018-06-15T01:57:51.950Z,17.00
2018-06-15T02:00:19.387Z,17.00
2018-06-15T02:02:46.785Z,17.00
2018-06-15T02:05:14.225Z,17.00
2018-06-15T02:07:41.912Z,17.00
2018-06-15T02:10:09.333Z,17.00
2018-06-15T02:12:36.826Z,17.00
2018-06-15T02:15:04.478Z,16.90
2018-06-15T02:17:31.993Z,16.90
2018-06-15T02:19:59.525Z,16.90
2018-06-15T02:22:27.012Z,16.80
2018-06-15T02:24:54.545Z,16.80
2018-06-15T02:27:22.126Z,16.70
2018-06-15T02:29:49.620Z,16.70
2018-06-15T02:32:17.118Z,16.70
2018-06-15T02:34:44.706Z,16.70
2018-06-15T02:37:12.259Z,16.70
2018-06-15T02:39:39.781Z,16.80
2018-06-15T02:42:07.298Z,16.70
2018-06-15T02:44:34.834Z,16.80
2018-06-15T02:47:02.364Z,16.80
2018-06-15T02:49:29.885Z,16.80
2018-06-15T02:51:57.414Z,16.70
2018-06-15T02:54:24.923Z,16.70
2018-06-15T02:56:52.505Z,16.70
2018-06-15T02:59:26.783Z,16.70
2018-06-15T03:01:54.302Z,16.60
2018-06-15T03:04:21.798Z,16.70
2018-06-15T03:06:49.329Z,16.70
2018-06-15T03:09:16.851Z,16.70
2018-06-15T03:11:44.437Z,16.70
2018-06-15T03:14:12.013Z,16.70
2018-06-15T03:16:39.535Z,16.70
2018-06-15T03:19:07.029Z,16.70
2018-06-15T03:21:34.770Z,16.70
2018-06-15T03:24:02.273Z,16.70
2018-06-15T03:26:29.916Z,16.60
2018-06-15T03:28:57.409Z,16.60
2018-06-15T03:31:24.920Z,16.60
2018-06-15T03:33:52.505Z,16.50
2018-06-15T03:36:20.026Z,16.60
2018-06-15T03:38:47.552Z,16.50
2018-06-15T03:41:15.107Z,16.50
2018-06-15T03:43:42.612Z,16.50
2018-06-15T03:46:10.126Z,16.50
2018-06-15T03:48:37.654Z,16.50
2018-06-15T03:51:05.178Z,16.50
2018-06-15T03:53:32.702Z,16.50
2018-06-15T03:56:00.225Z,16.50
2018-06-15T03:58:27.805Z,16.40
2018-06-15T04:00:55.323Z,16.50
2018-06-15T04:03:22.878Z,16.60
2018-06-15T04:05:50.495Z,16.50
2018-06-15T04:08:18.361Z,16.60
2018-06-15T04:10:45.883Z,16.60
2018-06-15T04:13:13.480Z,16.60
2018-06-15T04:15:41.005Z,16.60
2018-06-15T04:18:08.561Z,16.70
2018-06-15T04:20:37.365Z,16.70
2018-06-15T04:23:05.256Z,16.80
2018-06-15T04:25:32.773Z,16.80
2018-06-15T04:32:55.604Z,17.00
2018-06-15T04:35:23.149Z,17.00
2018-06-15T04:37:50.689Z,17.00
2018-06-15T04:40:18.205Z,17.00
2018-06-15T04:42:45.824Z,17.10
2018-06-15T04:45:13.383Z,17.10
2018-06-15T04:47:40.913Z,17.00
2018-06-15T04:50:08.803Z,17.00
2018-06-15T04:52:36.318Z,17.20
2018-06-15T04:57:31.665Z,17.30
2018-06-15T04:59:59.561Z,17.30
2018-06-15T05:02:27.417Z,17.40
2018-06-15T05:04:55.081Z,17.40
2018-06-15T05:07:22.616Z,17.40
2018-06-15T05:12:18.299Z,17.40
2018-06-15T05:14:45.862Z,17.40
2018-06-15T05:17:13.396Z,17.50
2018-06-15T05:19:41.235Z,17.50
2018-06-15T05:22:08.994Z,17.40
2018-06-15T05:24:36.863Z,17.40
2018-06-15T05:27:04.475Z,17.50
2018-06-15T05:29:32.036Z,17.50
2018-06-15T05:31:59.818Z,17.60
2018-06-15T05:34:27.368Z,17.60
2018-06-15T05:36:54.954Z,17.60
2018-06-15T05:39:22.475Z,17.60
2018-06-15T05:41:49.976Z,17.60
2018-06-15T05:44:17.549Z,17.70
2018-06-15T05:49:12.693Z,18.00
2018-06-15T05:51:40.967Z,18.20
2018-06-15T05:54:08.549Z,18.20
2018-06-15T05:56:36.077Z,18.40
2018-06-15T05:59:03.627Z,18.50
2018-06-15T06:01:31.303Z,18.60
2018-06-15T06:03:58.837Z,18.80
2018-06-15T06:06:26.389Z,18.80
2018-06-15T06:08:53.915Z,18.80
2018-06-15T06:11:21.629Z,18.90
2018-06-15T06:13:49.181Z,18.90
2018-06-15T06:16:16.765Z,18.80
2018-06-15T06:18:44.282Z,18.80
2018-06-15T06:21:13.193Z,18.60
2018-06-15T06:23:40.754Z,18.60
2018-06-15T06:26:08.340Z,18.50
2018-06-15T06:28:37.372Z,18.40
2018-06-15T06:31:05.261Z,18.40
2018-06-15T06:33:32.777Z,18.30
2018-06-15T06:36:00.445Z,18.40
2018-06-15T06:38:28.326Z,18.50
2018-06-15T06:43:23.294Z,18.70
2018-06-15T06:45:50.833Z,18.70
2018-06-15T06:48:18.341Z,18.80
2018-06-15T06:50:45.850Z,18.90
2018-06-15T06:53:13.355Z,18.80
2018-06-15T06:55:40.886Z,18.70
2018-06-15T06:58:08.478Z,18.80
2018-06-15T07:00:36.125Z,18.90
2018-06-15T07:03:03.835Z,19.10
2018-06-15T07:05:31.421Z,19.20
2018-06-15T07:08:05.724Z,19.40
2018-06-15T07:10:33.397Z,19.30
2018-06-15T07:13:01.217Z,19.40
2018-06-15T07:15:28.867Z,19.40
2018-06-15T07:17:56.590Z,19.40
2018-06-15T07:20:24.300Z,19.40
2018-06-15T07:25:26.080Z,19.50
2018-06-15T07:27:53.621Z,19.60
2018-06-15T07:30:21.148Z,19.50
2018-06-15T07:32:48.673Z,19.60
2018-06-15T07:35:16.233Z,19.50
2018-06-15T07:37:43.742Z,19.60
2018-06-15T07:40:11.240Z,19.70
2018-06-15T07:42:38.765Z,19.60
2018-06-15T07:45:06.404Z,19.60
2018-06-15T07:47:34.097Z,19.60
2018-06-15T07:50:02.090Z,19.80
2018-06-15T07:52:29.685Z,19.80
2018-06-15T07:54:57.141Z,19.80
2018-06-15T07:57:24.660Z,19.90
2018-06-15T07:59:52.191Z,20.10
2018-06-15T08:02:19.692Z,20.20
2018-06-15T08:04:47.254Z,20.40
2018-06-15T08:07:14.775Z,20.70
2018-06-15T08:09:42.290Z,20.90
2018-06-15T08:12:09.780Z,20.90
2018-06-15T08:14:37.305Z,20.90
2018-06-15T08:17:04.854Z,21.20
2018-06-15T08:19:32.434Z,21.40
2018-06-15T08:22:00.008Z,21.50
2018-06-15T08:24:27.591Z,21.40
2018-06-15T08:26:55.121Z,21.40
2018-06-15T08:29:22.673Z,21.40
2018-06-15T08:31:50.241Z,21.20
2018-06-15T08:34:17.797Z,21.10
2018-06-15T08:36:45.356Z,21.20
2018-06-15T08:39:12.889Z,21.20
2018-06-15T08:41:40.588Z,21.20
2018-06-15T08:44:08.413Z,21.20
2018-06-15T08:46:36.258Z,21.30
2018-06-15T08:49:03.973Z,21.40
2018-06-15T08:51:31.487Z,21.50
2018-06-15T08:53:59.066Z,21.50
2018-06-15T08:56:26.606Z,21.50
2018-06-15T08:58:54.145Z,21.40
2018-06-15T09:01:21.677Z,21.50
2018-06-15T09:03:49.226Z,21.50
2018-06-15T09:06:16.740Z,21.40
2018-06-15T09:08:44.274Z,21.40
2018-06-15T09:11:11.822Z,21.20
2018-06-15T09:13:39.345Z,21.10
2018-06-15T09:16:06.876Z,21.10
2018-06-15T09:18:34.413Z,21.10
2018-06-15T09:21:01.936Z,21.00
2018-06-15T09:23:29.481Z,21.00
2018-06-15T09:25:57.013Z,20.90
2018-06-15T09:28:24.554Z,21.00
2018-06-15T09:30:52.199Z,21.10
2018-06-15T09:33:19.713Z,21.20
2018-06-15T09:35:47.995Z,21.20
2018-06-15T09:38:15.591Z,21.20
2018-06-15T09:40:43.401Z,21.30
2018-06-15T09:43:10.915Z,21.10
2018-06-15T09:48:06.461Z,20.80
2018-06-15T09:50:34.024Z,20.80
2018-06-15T09:53:01.632Z,20.90
2018-06-15T09:55:29.181Z,21.10
2018-06-15T09:57:56.729Z,21.20
2018-06-15T10:00:29.949Z,21.20
2018-06-15T10:02:57.480Z,21.30
2018-06-15T10:05:25.036Z,21.50
2018-06-15T10:07:52.570Z,21.70
2018-06-15T10:10:20.103Z,21.60
2018-06-15T10:12:47.650Z,21.70
2018-06-15T10:15:15.196Z,21.80
2018-06-15T10:17:42.725Z,22.00
2018-06-15T10:20:10.274Z,22.20
2018-06-15T10:22:37.870Z,22.30
2018-06-15T10:25:05.402Z,22.30
2018-06-15T10:27:32.965Z,22.30
2018-06-15T10:30:00.497Z,22.40
2018-06-15T10:32:28.265Z,22.40
2018-06-15T10:34:55.790Z,22.60
2018-06-15T10:39:50.729Z,22.70
2018-06-15T10:42:18.256Z,22.60
2018-06-15T10:44:45.781Z,22.60
2018-06-15T10:47:13.329Z,22.70
2018-06-15T10:49:40.863Z,22.80
2018-06-15T10:52:08.433Z,22.90
2018-06-15T10:54:36.478Z,23.20
2018-06-15T10:57:04.041Z,23.20
2018-06-15T10:59:31.552Z,23.40
2018-06-15T11:01:59.122Z,23.60
2018-06-15T11:04:26.676Z,23.70
2018-06-15T11:06:54.426Z,24.00
2018-06-15T11:09:22.034Z,24.10
2018-06-15T11:11:49.587Z,24.20
2018-06-15T11:16:44.588Z,24.60
2018-06-15T11:19:12.157Z,24.70
2018-06-15T11:24:07.266Z,25.10
2018-06-15T11:26:34.789Z,25.00
2018-06-15T11:29:02.309Z,25.10
2018-06-15T11:31:29.838Z,24.80
2018-06-15T11:33:57.377Z,24.40
2018-06-15T11:36:24.896Z,23.80
2018-06-15T11:38:52.417Z,23.50
2018-06-15T11:43:47.385Z,23.20
2018-06-15T11:46:14.905Z,23.20
2018-06-15T11:48:42.409Z,23.20
2018-06-15T11:51:09.940Z,23.20
2018-06-15T11:53:37.464Z,23.40
2018-06-15T11:58:32.518Z,23.30
2018-06-15T12:01:00.153Z,23.30
2018-06-15T12:03:27.725Z,23.50
2018-06-15T12:05:55.234Z,23.60
2018-06-15T12:08:22.756Z,23.80
2018-06-15T12:10:50.353Z,24.00
2018-06-15T12:13:18.793Z,24.20
2018-06-15T12:15:47.190Z,24.50
2018-06-15T12:18:14.723Z,24.80
2018-06-15T12:20:42.284Z,25.00
2018-06-15T12:23:09.815Z,25.10
2018-06-15T12:25:37.385Z,24.90
2018-06-15T12:28:07.037Z,24.70
2018-06-15T12:30:34.589Z,24.70
2018-06-15T12:33:02.274Z,24.50
2018-06-15T12:35:30.670Z,24.20
2018-06-15T12:40:25.655Z,23.90
2018-06-15T12:42:53.183Z,24.00
2018-06-15T12:45:27.317Z,24.10
2018-06-15T12:47:54.817Z,24.00
2018-06-15T12:50:22.556Z,23.90
2018-06-15T12:52:50.075Z,23.90
2018-06-15T12:55:17.633Z,23.70
2018-06-15T12:57:45.153Z,23.80
2018-06-15T13:02:40.172Z,24.10
2018-06-15T13:05:07.733Z,24.00
2018-06-15T13:07:35.429Z,24.00
2018-06-15T13:10:03.050Z,24.00
2018-06-15T13:12:30.697Z,24.00
2018-06-15T13:14:58.377Z,24.00
2018-06-15T13:17:25.946Z,24.10
2018-06-15T13:19:53.545Z,24.40
2018-06-15T13:22:21.095Z,24.60
2018-06-15T13:24:48.662Z,24.90
2018-06-15T13:27:16.188Z,25.00
2018-06-15T13:29:43.701Z,25.10
2018-06-15T13:32:11.223Z,25.10
2018-06-15T13:34:38.741Z,25.00
2018-06-15T13:37:06.551Z,24.90
2018-06-15T13:39:35.333Z,24.90
2018-06-15T13:42:04.575Z,24.80
2018-06-15T13:44:32.133Z,24.80
2018-06-15T13:46:59.658Z,25.00
2018-06-15T13:49:27.161Z,25.20
2018-06-15T13:51:54.786Z,25.40
2018-06-15T13:54:22.516Z,25.30
2018-06-15T13:56:50.117Z,25.30
2018-06-15T13:59:17.616Z,25.30
2018-06-15T14:01:45.137Z,25.30
2018-06-15T14:04:12.709Z,25.50
2018-06-15T14:06:40.243Z,25.70
2018-06-15T14:09:08.702Z,25.80
2018-06-15T14:11:36.212Z,25.80
2018-06-15T14:14:03.799Z,25.80
2018-06-15T14:16:31.325Z,25.70
2018-06-15T14:18:58.834Z,25.60
2018-06-15T14:21:26.421Z,25.60
2018-06-15T14:23:53.957Z,25.70
2018-06-15T14:26:22.336Z,25.60
2018-06-15T14:28:50.053Z,25.70
2018-06-15T14:31:17.753Z,25.80
2018-06-15T14:33:45.277Z,26.00
2018-06-15T14:38:40.251Z,26.40
2018-06-15T14:41:07.749Z,26.70
2018-06-15T14:43:35.271Z,26.80
2018-06-15T14:46:02.869Z,26.70
2018-06-15T14:50:57.866Z,26.70
2018-06-15T14:53:25.374Z,26.80
2018-06-15T14:55:52.871Z,26.90
2018-06-15T14:58:20.439Z,26.80
2018-06-15T15:00:48.202Z,26.60
2018-06-15T15:03:15.768Z,26.50
2018-06-15T15:05:43.315Z,26.40
2018-06-15T15:08:10.869Z,26.40
2018-06-15T15:10:38.439Z,26.50
2018-06-15T15:13:09.478Z,26.50
2018-06-15T15:15:36.993Z,26.60
2018-06-15T15:18:04.757Z,26.70
2018-06-15T15:20:32.822Z,26.80
2018-06-15T15:23:00.324Z,26.80
2018-06-15T15:25:27.854Z,26.80
2018-06-15T15:27:55.393Z,26.70
2018-06-15T15:30:22.921Z,26.70
2018-06-15T15:32:50.429Z,26.80
2018-06-15T15:35:17.995Z,27.10
2018-06-15T15:37:45.524Z,27.40
2018-06-15T15:40:13.085Z,28.00
2018-06-15T15:42:40.609Z,28.80
2018-06-15T15:45:08.229Z,29.60
2018-06-15T15:47:35.729Z,30.40
2018-06-15T15:52:30.784Z,31.50
2018-06-15T15:54:58.337Z,31.90
2018-06-15T15:57:25.861Z,32.40
2018-06-15T15:59:53.402Z,32.40
2018-06-15T16:02:20.974Z,32.40
2018-06-15T16:04:48.805Z,32.80
2018-06-15T16:07:16.359Z,33.60
2018-06-15T16:09:43.857Z,34.20
2018-06-15T16:12:11.402Z,34.60
2018-06-15T16:14:38.974Z,34.90
2018-06-15T16:17:06.521Z,34.90
2018-06-15T16:19:40.613Z,34.50
2018-06-15T16:22:08.128Z,34.20
2018-06-15T16:24:36.521Z,34.50
2018-06-15T16:27:04.253Z,34.60
2018-06-15T16:29:31.757Z,34.00
2018-06-15T16:31:59.537Z,33.40
2018-06-15T16:34:27.046Z,32.60
2018-06-15T16:36:54.597Z,31.70
2018-06-15T16:39:22.111Z,31.20
2018-06-15T16:41:49.670Z,30.50
2018-06-15T16:44:17.213Z,29.80
2018-06-15T16:46:44.770Z,28.90
2018-06-15T16:49:12.886Z,28.50
2018-06-15T16:51:42.590Z,28.10
2018-06-15T16:54:10.126Z,27.90
2018-06-15T16:56:37.690Z,28.00
2018-06-15T16:59:06.905Z,28.40
2018-06-15T17:01:34.504Z,28.90
2018-06-15T17:04:02.177Z,29.60
2018-06-15T17:06:30.202Z,29.60
2018-06-15T17:08:57.746Z,29.30
2018-06-15T17:11:25.255Z,29.10
2018-06-15T17:13:52.793Z,29.30
2018-06-15T17:16:20.303Z,29.60
2018-06-15T17:18:47.969Z,30.00
2018-06-15T17:21:16.242Z,30.20
2018-06-15T17:23:44.069Z,30.40
2018-06-15T17:26:12.234Z,30.30
2018-06-15T17:28:39.809Z,30.00
2018-06-15T17:31:07.376Z,29.70
2018-06-15T17:33:34.949Z,29.60
2018-06-15T17:36:03.964Z,29.80
2018-06-15T17:38:32.644Z,29.90
2018-06-15T17:41:00.456Z,30.00
2018-06-15T17:43:27.966Z,30.50
2018-06-15T17:45:55.781Z,30.90
2018-06-15T17:48:23.312Z,31.10
2018-06-15T17:50:50.850Z,31.10
2018-06-15T17:53:19.725Z,31.10
2018-06-15T17:55:47.384Z,30.80
2018-06-15T17:58:14.914Z,30.20
2018-06-15T18:00:42.441Z,29.60
2018-06-15T18:03:10.001Z,29.20
2018-06-15T18:08:05.260Z,28.30
2018-06-15T18:10:32.785Z,27.90
2018-06-15T18:15:27.827Z,27.20
2018-06-15T18:17:55.385Z,26.90
2018-06-15T18:20:22.925Z,26.60
2018-06-15T18:22:50.465Z,26.50
2018-06-15T18:25:18.035Z,26.20
2018-06-15T18:30:13.005Z,25.70
2018-06-15T18:32:40.536Z,25.50
2018-06-15T18:35:08.144Z,25.40
2018-06-15T18:37:35.677Z,25.20
2018-06-15T18:40:03.523Z,25.10
2018-06-15T18:42:31.084Z,25.10
2018-06-15T18:44:58.648Z,24.90
2018-06-15T18:47:26.857Z,24.80
2018-06-15T18:49:54.413Z,24.70
2018-06-15T18:52:21.977Z,24.70
2018-06-15T18:54:49.664Z,24.60
2018-06-15T18:57:17.864Z,24.60
2018-06-15T18:59:45.378Z,24.50
2018-06-15T19:02:14.927Z,24.40
2018-06-15T19:04:42.445Z,24.20
2018-06-15T19:07:09.966Z,24.10
2018-06-15T19:09:37.475Z,24.00
2018-06-15T19:12:05.106Z,23.80
2018-06-15T19:14:32.674Z,23.70
2018-06-15T19:17:00.284Z,23.70
2018-06-15T19:19:27.809Z,23.60
2018-06-15T19:21:55.337Z,23.60
2018-06-15T19:24:24.116Z,23.70
2018-06-15T19:26:51.670Z,23.60
2018-06-15T19:29:19.196Z,23.50
2018-06-15T19:31:46.722Z,23.40
2018-06-15T19:34:14.238Z,23.40
2018-06-15T19:36:41.913Z,23.40
2018-06-15T19:39:16.185Z,23.40
2018-06-15T19:41:44.875Z,23.30
2018-06-15T19:44:12.408Z,23.30
2018-06-15T19:46:39.917Z,23.20
2018-06-15T19:49:07.692Z,23.00
2018-06-15T19:51:37.685Z,22.80
2018-06-15T19:54:05.258Z,22.60
2018-06-15T19:56:32.769Z,22.50
2018-06-15T19:59:01.479Z,22.40
2018-06-15T20:01:29.006Z,22.40
2018-06-15T20:03:56.517Z,22.20
2018-06-15T20:06:24.041Z,22.00
2018-06-15T20:08:51.816Z,21.90
2018-06-15T20:11:19.326Z,21.80
2018-06-15T20:13:46.841Z,21.70
2018-06-15T20:16:14.799Z,21.60
2018-06-15T20:18:42.507Z,21.50
2018-06-15T20:21:10.082Z,21.40
2018-06-15T20:23:37.604Z,21.20
2018-06-15T20:26:05.345Z,21.10
2018-06-15T20:28:32.905Z,21.20
2018-06-15T20:31:00.420Z,21.10
2018-06-15T20:35:55.731Z,21.00
2018-06-15T20:38:23.304Z,20.80
2018-06-15T20:40:51.599Z,20.80
2018-06-15T20:43:19.217Z,20.80
2018-06-15T20:45:46.740Z,20.70
2018-06-15T20:48:14.313Z,20.70
2018-06-15T20:50:41.835Z,20.60
2018-06-15T20:53:09.426Z,20.50
2018-06-15T20:55:36.929Z,20.40
2018-06-15T20:58:04.533Z,20.30
2018-06-15T21:00:32.101Z,20.30
2018-06-15T21:02:59.657Z,20.30
2018-06-15T21:05:27.205Z,20.20
2018-06-15T21:07:54.733Z,20.20
2018-06-15T21:10:22.322Z,20.20
2018-06-15T21:12:49.878Z,20.10
2018-06-15T21:15:17.421Z,20.10
2018-06-15T21:17:44.920Z,20.00
2018-06-15T21:20:12.482Z,19.90
2018-06-15T21:22:39.981Z,19.90
2018-06-15T21:25:08.011Z,19.80
2018-06-15T21:27:35.537Z,19.80
2018-06-15T21:30:03.159Z,19.80
2018-06-15T21:32:30.703Z,19.70
2018-06-15T21:34:58.493Z,19.70
2018-06-15T21:37:26.020Z,19.60
2018-06-15T21:39:53.591Z,19.60
2018-06-15T21:42:21.101Z,19.60
2018-06-15T21:44:48.837Z,19.60
2018-06-15T21:47:16.664Z,19.60
2018-06-15T21:49:44.241Z,19.50
2018-06-15T21:52:11.796Z,19.50
2018-06-15T21:54:39.582Z,19.50
2018-06-15T21:57:07.460Z,19.30
2018-06-15T21:59:35.044Z,19.30
2018-06-15T22:02:02.616Z,19.20
2018-06-15T22:04:30.357Z,19.10
2018-06-15T22:06:57.910Z,19.20
2018-06-15T22:09:25.456Z,19.20
2018-06-15T22:11:53.031Z,19.10
2018-06-15T22:14:20.783Z,19.10
2018-06-15T22:16:51.389Z,19.10
2018-06-15T22:19:23.066Z,19.10
2018-06-15T22:21:52.093Z,19.10
2018-06-15T22:24:19.937Z,19.10
2018-06-15T22:26:47.532Z,19.10
2018-06-15T22:29:15.135Z,19.10
2018-06-15T22:31:42.820Z,19.10
2018-06-15T22:34:10.369Z,19.00
2018-06-15T22:36:39.088Z,19.00
2018-06-15T22:39:09.990Z,19.00
2018-06-15T22:41:37.549Z,19.10
2018-06-15T22:44:05.114Z,19.10
2018-06-15T22:46:32.678Z,19.10
2018-06-15T22:49:00.185Z,19.20
2018-06-15T22:51:27.734Z,19.20
2018-06-15T22:53:55.266Z,19.20
2018-06-15T22:56:22.834Z,19.10
2018-06-15T22:58:50.381Z,19.10
2018-06-15T23:01:17.958Z,19.00
2018-06-15T23:03:45.494Z,19.00
2018-06-15T23:06:13.057Z,19.00
2018-06-15T23:08:40.638Z,19.10
2018-06-15T23:11:08.225Z,19.00
2018-06-15T23:13:35.788Z,19.00
2018-06-15T23:16:03.389Z,18.90
2018-06-15T23:18:30.947Z,18.90
2018-06-15T23:20:58.506Z,18.80
2018-06-15T23:23:26.189Z,18.70
2018-06-15T23:25:53.873Z,18.70
2018-06-15T23:28:21.409Z,18.70
2018-06-15T23:30:48.922Z,18.60
2018-06-15T23:33:16.449Z,18.50
2018-06-15T23:35:43.952Z,18.50
2018-06-15T23:38:11.474Z,18.40
2018-06-15T23:40:39.053Z,18.40
2018-06-15T23:43:06.578Z,18.30
2018-06-15T23:45:34.122Z,18.20
2018-06-15T23:48:01.678Z,18.20
2018-06-15T23:50:29.262Z,18.20
2018-06-15T23:52:57.206Z,18.20
2018-06-15T23:55:24.766Z,18.20
2018-06-15T23:57:52.330Z,18.30
